sensor_id;sensor_type;location;lat;lon;timestamp;temperature;humidity
30949;HTU21D;17637;51.984;21.208;2022-08-07T00:01:01;16.36;3.47
30949;HTU21D;17637;51.984;21.208;2022-08-07T00:06:24;16.25;2.77
30949;HTU21D;17637;51.984;21.208;2022-08-07T00:11:36;16.25;3.54
30949;HTU21D;17637;51.984;21.208;2022-08-07T00:16:58;16.26;3.50
30949;HTU21D;17637;51.984;21.208;2022-08-07T00:22:03;16.28;3.49
30949;HTU21D;17637;51.984;21.208;2022-08-07T00:27:08;16.19;3.99
30949;HTU21D;17637;51.984;21.208;2022-08-07T00:32:12;16.07;4.54
30949;HTU21D;17637;51.984;21.208;2022-08-07T00:37:16;16.05;5.19
30949;HTU21D;17637;51.984;21.208;2022-08-07T00:42:21;16.00;5.14
30949;HTU21D;17637;51.984;21.208;2022-08-07T00:47:31;15.93;4.84
30949;HTU21D;17637;51.984;21.208;2022-08-07T00:52:54;15.87;4.89
30949;HTU21D;17637;51.984;21.208;2022-08-07T00:57:58;15.77;5.29
30949;HTU21D;17637;51.984;21.208;2022-08-07T01:03:02;15.66;5.89
30949;HTU21D;17637;51.984;21.208;2022-08-07T01:08:07;15.51;6.21
30949;HTU21D;17637;51.984;21.208;2022-08-07T01:13:12;15.45;6.48
30949;HTU21D;17637;51.984;21.208;2022-08-07T01:18:18;15.30;6.81
30949;HTU21D;17637;51.984;21.208;2022-08-07T01:23:28;15.29;6.58
30949;HTU21D;17637;51.984;21.208;2022-08-07T01:28:41;15.18;6.32
30949;HTU21D;17637;51.984;21.208;2022-08-07T01:33:49;15.16;6.18
30949;HTU21D;17637;51.984;21.208;2022-08-07T01:39:00;15.03;5.39
30949;HTU21D;17637;51.984;21.208;2022-08-07T01:44:11;14.86;5.57
30949;HTU21D;17637;51.984;21.208;2022-08-07T01:49:14;14.94;5.54
30949;HTU21D;17637;51.984;21.208;2022-08-07T01:54:26;14.94;5.73
30949;HTU21D;17637;51.984;21.208;2022-08-07T01:59:41;14.84;5.89
30949;HTU21D;17637;51.984;21.208;2022-08-07T02:04:52;14.83;6.03
30949;HTU21D;17637;51.984;21.208;2022-08-07T02:10:00;14.79;6.28
30949;HTU21D;17637;51.984;21.208;2022-08-07T02:15:06;14.71;6.25
30949;HTU21D;17637;51.984;21.208;2022-08-07T02:20:10;14.56;6.89
30949;HTU21D;17637;51.984;21.208;2022-08-07T02:25:28;14.42;7.09
30949;HTU21D;17637;51.984;21.208;2022-08-07T02:30:52;14.41;7.21
30949;HTU21D;17637;51.984;21.208;2022-08-07T02:35:57;14.30;7.38
30949;HTU21D;17637;51.984;21.208;2022-08-07T02:41:24;14.19;7.31
30949;HTU21D;17637;51.984;21.208;2022-08-07T02:46:38;13.96;7.51
30949;HTU21D;17637;51.984;21.208;2022-08-07T02:51:55;13.86;7.53
30949;HTU21D;17637;51.984;21.208;2022-08-07T02:57:01;13.80;7.73
30949;HTU21D;17637;51.984;21.208;2022-08-07T03:02:08;13.63;7.82
30949;HTU21D;17637;51.984;21.208;2022-08-07T03:07:12;13.51;8.18
30949;HTU21D;17637;51.984;21.208;2022-08-07T03:12:19;13.39;8.22
30949;HTU21D;17637;51.984;21.208;2022-08-07T03:17:32;13.31;8.19
30949;HTU21D;17637;51.984;21.208;2022-08-07T03:22:56;13.26;8.61
30949;HTU21D;17637;51.984;21.208;2022-08-07T03:28:02;13.22;8.43
30949;HTU21D;17637;51.984;21.208;2022-08-07T03:33:26;13.33;8.79
30949;HTU21D;17637;51.984;21.208;2022-08-07T03:38:41;13.39;8.63
30949;HTU21D;17637;51.984;21.208;2022-08-07T03:43:48;13.47;8.18
30949;HTU21D;17637;51.984;21.208;2022-08-07T03:48:59;13.54;8.12
30949;HTU21D;17637;51.984;21.208;2022-08-07T03:54:05;13.53;8.14
30949;HTU21D;17637;51.984;21.208;2022-08-07T03:59:30;13.77;7.37
30949;HTU21D;17637;51.984;21.208;2022-08-07T04:04:34;13.81;7.58
30949;HTU21D;17637;51.984;21.208;2022-08-07T04:09:38;13.98;6.97
30949;HTU21D;17637;51.984;21.208;2022-08-07T04:14:53;14.07;6.93
30949;HTU21D;17637;51.984;21.208;2022-08-07T04:19:57;14.08;6.51
30949;HTU21D;17637;51.984;21.208;2022-08-07T04:25:03;14.23;6.82
30949;HTU21D;17637;51.984;21.208;2022-08-07T04:30:15;14.28;6.66
30949;HTU21D;17637;51.984;21.208;2022-08-07T04:35:40;14.38;6.00
30949;HTU21D;17637;51.984;21.208;2022-08-07T04:40:44;14.57;6.01
30949;HTU21D;17637;51.984;21.208;2022-08-07T04:46:02;14.63;5.82
30949;HTU21D;17637;51.984;21.208;2022-08-07T04:51:08;14.73;5.03
30949;HTU21D;17637;51.984;21.208;2022-08-07T04:56:20;14.79;4.70
30949;HTU21D;17637;51.984;21.208;2022-08-07T05:01:53;14.81;4.93
30949;HTU21D;17637;51.984;21.208;2022-08-07T05:07:04;14.87;4.65
30949;HTU21D;17637;51.984;21.208;2022-08-07T05:12:27;15.00;5.09
30949;HTU21D;17637;51.984;21.208;2022-08-07T05:17:34;14.99;4.12
30949;HTU21D;17637;51.984;21.208;2022-08-07T05:22:59;15.23;3.83
30949;HTU21D;17637;51.984;21.208;2022-08-07T05:28:04;15.28;3.51
30949;HTU21D;17637;51.984;21.208;2022-08-07T05:33:26;16.17;3.15
30949;HTU21D;17637;51.984;21.208;2022-08-07T05:38:30;16.46;2.05
30949;HTU21D;17637;51.984;21.208;2022-08-07T05:43:54;16.77;0.48
30949;HTU21D;17637;51.984;21.208;2022-08-07T05:49:15;17.14;0.48
30949;HTU21D;17637;51.984;21.208;2022-08-07T05:54:19;17.29;-0.51
30949;HTU21D;17637;51.984;21.208;2022-08-07T05:59:43;17.43;-1.21
30949;HTU21D;17637;51.984;21.208;2022-08-07T06:05:04;17.63;-0.60
30949;HTU21D;17637;51.984;21.208;2022-08-07T06:10:12;17.51;-2.22
30949;HTU21D;17637;51.984;21.208;2022-08-07T06:15:17;17.62;-2.03
30949;HTU21D;17637;51.984;21.208;2022-08-07T06:20:24;17.45;-2.59
30949;HTU21D;17637;51.984;21.208;2022-08-07T06:25:46;17.39;-3.15
30949;HTU21D;17637;51.984;21.208;2022-08-07T06:30:58;17.74;-3.05
30949;HTU21D;17637;51.984;21.208;2022-08-07T06:36:03;17.76;-4.29
30949;HTU21D;17637;51.984;21.208;2022-08-07T06:41:24;18.09;-4.53
30949;HTU21D;17637;51.984;21.208;2022-08-07T06:46:48;18.44;-4.46
30949;HTU21D;17637;51.984;21.208;2022-08-07T06:52:15;18.40;-4.26
30949;HTU21D;17637;51.984;21.208;2022-08-07T06:57:33;18.27;-4.05
30949;HTU21D;17637;51.984;21.208;2022-08-07T07:02:50;18.33;-4.94
30949;HTU21D;17637;51.984;21.208;2022-08-07T07:08:01;18.65;-5.16
30949;HTU21D;17637;51.984;21.208;2022-08-07T07:13:13;18.52;-5.74
30949;HTU21D;17637;51.984;21.208;2022-08-07T07:18:20;18.97;118.32
30949;HTU21D;17637;51.984;21.208;2022-08-07T07:23:46;18.79;-5.39
30949;HTU21D;17637;51.984;21.208;2022-08-07T07:29:12;19.21;117.61
30949;HTU21D;17637;51.984;21.208;2022-08-07T07:34:41;18.94;115.78
30949;HTU21D;17637;51.984;21.208;2022-08-07T07:39:49;19.14;116.71
30949;HTU21D;17637;51.984;21.208;2022-08-07T07:44:58;18.99;115.93
30949;HTU21D;17637;51.984;21.208;2022-08-07T07:50:05;19.30;114.69
30949;HTU21D;17637;51.984;21.208;2022-08-07T07:55:31;19.09;114.52
30949;HTU21D;17637;51.984;21.208;2022-08-07T08:00:48;19.29;115.38
30949;HTU21D;17637;51.984;21.208;2022-08-07T08:05:55;19.47;114.95
30949;HTU21D;17637;51.984;21.208;2022-08-07T08:11:01;19.23;114.44
30949;HTU21D;17637;51.984;21.208;2022-08-07T08:16:06;18.69;113.96
30949;HTU21D;17637;51.984;21.208;2022-08-07T08:21:15;19.71;114.50
30949;HTU21D;17637;51.984;21.208;2022-08-07T08:26:59;19.66;114.20
30949;HTU21D;17637;51.984;21.208;2022-08-07T08:32:16;19.71;110.84
30949;HTU21D;17637;51.984;21.208;2022-08-07T08:37:29;19.83;113.06
30949;HTU21D;17637;51.984;21.208;2022-08-07T08:43:02;20.00;111.02
30949;HTU21D;17637;51.984;21.208;2022-08-07T08:48:20;19.70;109.71
30949;HTU21D;17637;51.984;21.208;2022-08-07T08:53:33;19.89;109.54
30949;HTU21D;17637;51.984;21.208;2022-08-07T08:58:49;19.77;109.07
30949;HTU21D;17637;51.984;21.208;2022-08-07T09:04:08;20.31;108.00
30949;HTU21D;17637;51.984;21.208;2022-08-07T09:09:30;20.37;108.67
30949;HTU21D;17637;51.984;21.208;2022-08-07T09:14:47;20.48;106.50
30949;HTU21D;17637;51.984;21.208;2022-08-07T09:20:07;20.45;107.71
30949;HTU21D;17637;51.984;21.208;2022-08-07T09:25:43;20.74;101.77
30949;HTU21D;17637;51.984;21.208;2022-08-07T09:31:01;20.66;104.10
30949;HTU21D;17637;51.984;21.208;2022-08-07T09:36:10;20.63;105.96
30949;HTU21D;17637;51.984;21.208;2022-08-07T09:41:22;20.60;101.22
30949;HTU21D;17637;51.984;21.208;2022-08-07T09:46:43;20.22;102.32
30949;HTU21D;17637;51.984;21.208;2022-08-07T09:52:19;20.36;99.67
30949;HTU21D;17637;51.984;21.208;2022-08-07T10:09:12;20.81;102.66
30949;HTU21D;17637;51.984;21.208;2022-08-07T10:14:32;20.94;101.29
30949;HTU21D;17637;51.984;21.208;2022-08-07T10:19:55;20.94;91.92
30949;HTU21D;17637;51.984;21.208;2022-08-07T10:25:09;20.72;96.42
30949;HTU21D;17637;51.984;21.208;2022-08-07T10:30:17;20.33;92.89
30949;HTU21D;17637;51.984;21.208;2022-08-07T10:35:26;20.53;90.75
30949;HTU21D;17637;51.984;21.208;2022-08-07T10:40:54;20.95;89.68
30949;HTU21D;17637;51.984;21.208;2022-08-07T10:46:07;21.02;88.86
30949;HTU21D;17637;51.984;21.208;2022-08-07T10:51:19;20.78;91.92
30949;HTU21D;17637;51.984;21.208;2022-08-07T10:56:48;20.87;93.74
30949;HTU21D;17637;51.984;21.208;2022-08-07T11:02:00;21.19;91.95
30949;HTU21D;17637;51.984;21.208;2022-08-07T11:07:37;21.10;87.03
30949;HTU21D;17637;51.984;21.208;2022-08-07T11:13:08;20.98;91.91
30949;HTU21D;17637;51.984;21.208;2022-08-07T11:18:35;21.27;91.83
30949;HTU21D;17637;51.984;21.208;2022-08-07T11:23:52;21.53;87.61
30949;HTU21D;17637;51.984;21.208;2022-08-07T11:29:02;21.16;90.47
30949;HTU21D;17637;51.984;21.208;2022-08-07T11:34:32;21.27;91.67
30949;HTU21D;17637;51.984;21.208;2022-08-07T11:39:53;21.23;89.67
30949;HTU21D;17637;51.984;21.208;2022-08-07T11:45:14;21.38;88.06
30949;HTU21D;17637;51.984;21.208;2022-08-07T11:50:42;21.74;89.59
30949;HTU21D;17637;51.984;21.208;2022-08-07T11:56:09;21.50;82.87
30949;HTU21D;17637;51.984;21.208;2022-08-07T12:01:38;21.87;86.06
30949;HTU21D;17637;51.984;21.208;2022-08-07T12:07:08;21.98;91.33
30949;HTU21D;17637;51.984;21.208;2022-08-07T12:12:36;21.90;90.53
30949;HTU21D;17637;51.984;21.208;2022-08-07T12:17:44;21.70;84.00
30949;HTU21D;17637;51.984;21.208;2022-08-07T12:23:27;21.59;83.45
30949;HTU21D;17637;51.984;21.208;2022-08-07T12:29:00;21.90;82.17
30949;HTU21D;17637;51.984;21.208;2022-08-07T12:34:06;21.67;85.49
30949;HTU21D;17637;51.984;21.208;2022-08-07T12:39:13;21.69;84.52
30949;HTU21D;17637;51.984;21.208;2022-08-07T12:44:39;21.83;84.97
30949;HTU21D;17637;51.984;21.208;2022-08-07T12:49:49;21.78;84.65
30949;HTU21D;17637;51.984;21.208;2022-08-07T12:55:12;21.91;82.94
30949;HTU21D;17637;51.984;21.208;2022-08-07T13:00:25;22.20;83.64
30949;HTU21D;17637;51.984;21.208;2022-08-07T13:05:53;22.16;84.29
30949;HTU21D;17637;51.984;21.208;2022-08-07T13:11:12;22.09;86.12
30949;HTU21D;17637;51.984;21.208;2022-08-07T13:16:28;22.38;81.65
30949;HTU21D;17637;51.984;21.208;2022-08-07T13:21:33;22.34;77.82
30949;HTU21D;17637;51.984;21.208;2022-08-07T13:27:12;22.09;84.82
30949;HTU21D;17637;51.984;21.208;2022-08-07T13:32:28;22.18;80.59
30949;HTU21D;17637;51.984;21.208;2022-08-07T13:37:44;22.38;81.28
30949;HTU21D;17637;51.984;21.208;2022-08-07T13:43:04;22.26;78.96
30949;HTU21D;17637;51.984;21.208;2022-08-07T13:48:15;22.31;80.70
30949;HTU21D;17637;51.984;21.208;2022-08-07T13:53:38;21.98;80.77
30949;HTU21D;17637;51.984;21.208;2022-08-07T13:59:03;21.90;82.50
30949;HTU21D;17637;51.984;21.208;2022-08-07T14:04:15;21.75;78.98
30949;HTU21D;17637;51.984;21.208;2022-08-07T14:09:25;22.03;79.83
30949;HTU21D;17637;51.984;21.208;2022-08-07T14:14:59;21.84;80.58
30949;HTU21D;17637;51.984;21.208;2022-08-07T14:20:09;22.25;80.06
30949;HTU21D;17637;51.984;21.208;2022-08-07T14:25:38;21.93;79.71
30949;HTU21D;17637;51.984;21.208;2022-08-07T14:30:49;21.98;78.31
30949;HTU21D;17637;51.984;21.208;2022-08-07T14:35:57;21.90;77.45
30949;HTU21D;17637;51.984;21.208;2022-08-07T14:41:07;21.90;77.18
30949;HTU21D;17637;51.984;21.208;2022-08-07T14:46:18;22.18;80.39
30949;HTU21D;17637;51.984;21.208;2022-08-07T14:51:36;22.26;78.59
30949;HTU21D;17637;51.984;21.208;2022-08-07T14:57:02;22.38;77.11
30949;HTU21D;17637;51.984;21.208;2022-08-07T15:02:09;22.12;79.32
30949;HTU21D;17637;51.984;21.208;2022-08-07T15:07:35;22.26;77.80
30949;HTU21D;17637;51.984;21.208;2022-08-07T15:13:02;22.22;78.57
30949;HTU21D;17637;51.984;21.208;2022-08-07T15:18:10;22.22;79.95
30949;HTU21D;17637;51.984;21.208;2022-08-07T15:23:37;22.17;76.03
30949;HTU21D;17637;51.984;21.208;2022-08-07T15:29:01;22.27;77.92
30949;HTU21D;17637;51.984;21.208;2022-08-07T15:34:25;22.41;79.56
30949;HTU21D;17637;51.984;21.208;2022-08-07T15:39:30;22.54;80.14
30949;HTU21D;17637;51.984;21.208;2022-08-07T15:44:57;22.75;81.74
30949;HTU21D;17637;51.984;21.208;2022-08-07T15:50:03;22.82;78.56
30949;HTU21D;17637;51.984;21.208;2022-08-07T15:55:11;22.68;79.30
30949;HTU21D;17637;51.984;21.208;2022-08-07T16:00:17;22.31;82.55
30949;HTU21D;17637;51.984;21.208;2022-08-07T16:05:36;22.61;81.01
30949;HTU21D;17637;51.984;21.208;2022-08-07T16:10:44;22.42;85.03
30949;HTU21D;17637;51.984;21.208;2022-08-07T16:16:04;22.62;84.68
30949;HTU21D;17637;51.984;21.208;2022-08-07T16:21:34;22.52;86.89
30949;HTU21D;17637;51.984;21.208;2022-08-07T16:27:08;22.02;84.99
30949;HTU21D;17637;51.984;21.208;2022-08-07T16:32:25;21.81;85.27
30949;HTU21D;17637;51.984;21.208;2022-08-07T16:38:13;21.81;90.31
30949;HTU21D;17637;51.984;21.208;2022-08-07T16:44:18;22.62;84.61
30949;HTU21D;17637;51.984;21.208;2022-08-07T16:55:51;22.81;85.14
30949;HTU21D;17637;51.984;21.208;2022-08-07T17:01:09;22.38;88.17
30949;HTU21D;17637;51.984;21.208;2022-08-07T17:06:36;22.06;91.99
30949;HTU21D;17637;51.984;21.208;2022-08-07T17:11:55;21.73;94.97
30949;HTU21D;17637;51.984;21.208;2022-08-07T17:17:36;21.43;104.31
30949;HTU21D;17637;51.984;21.208;2022-08-07T17:22:56;21.19;99.14
30949;HTU21D;17637;51.984;21.208;2022-08-07T17:28:07;21.03;99.38
30949;HTU21D;17637;51.984;21.208;2022-08-07T17:33:16;20.93;97.10
30949;HTU21D;17637;51.984;21.208;2022-08-07T17:38:49;20.80;99.19
30949;HTU21D;17637;51.984;21.208;2022-08-07T17:44:01;20.49;105.84
30949;HTU21D;17637;51.984;21.208;2022-08-07T17:49:17;20.30;107.93
30949;HTU21D;17637;51.984;21.208;2022-08-07T17:54:31;20.07;109.55
30949;HTU21D;17637;51.984;21.208;2022-08-07T17:59:58;19.86;111.48
30949;HTU21D;17637;51.984;21.208;2022-08-07T18:05:13;19.57;114.39
30949;HTU21D;17637;51.984;21.208;2022-08-07T18:10:30;19.33;115.89
30949;HTU21D;17637;51.984;21.208;2022-08-07T18:15:41;19.09;118.57
30949;HTU21D;17637;51.984;21.208;2022-08-07T18:21:00;18.89;-5.05
30949;HTU21D;17637;51.984;21.208;2022-08-07T18:26:35;18.64;-1.90
30949;HTU21D;17637;51.984;21.208;2022-08-07T18:31:56;18.39;0.42
30949;HTU21D;17637;51.984;21.208;2022-08-07T18:37:19;18.21;0.70
30949;HTU21D;17637;51.984;21.208;2022-08-07T18:42:56;18.02;2.28
30949;HTU21D;17637;51.984;21.208;2022-08-07T18:48:07;17.83;3.35
30949;HTU21D;17637;51.984;21.208;2022-08-07T18:53:51;17.69;3.96
30949;HTU21D;17637;51.984;21.208;2022-08-07T18:59:04;17.49;6.25
30949;HTU21D;17637;51.984;21.208;2022-08-07T19:04:39;17.35;7.61
30949;HTU21D;17637;51.984;21.208;2022-08-07T19:10:08;17.18;8.36
30949;HTU21D;17637;51.984;21.208;2022-08-07T19:15:28;17.01;9.22
30949;HTU21D;17637;51.984;21.208;2022-08-07T19:21:00;16.85;9.83
30949;HTU21D;17637;51.984;21.208;2022-08-07T19:26:19;16.74;11.00
30949;HTU21D;17637;51.984;21.208;2022-08-07T19:31:32;16.60;11.14
30949;HTU21D;17637;51.984;21.208;2022-08-07T19:36:57;16.45;11.92
30949;HTU21D;17637;51.984;21.208;2022-08-07T19:42:20;16.31;11.49
30949;HTU21D;17637;51.984;21.208;2022-08-07T19:47:28;16.27;11.96
30949;HTU21D;17637;51.984;21.208;2022-08-07T19:52:38;16.15;11.82
30949;HTU21D;17637;51.984;21.208;2022-08-07T19:57:47;16.03;11.80
30949;HTU21D;17637;51.984;21.208;2022-08-07T20:03:15;15.85;12.10
30949;HTU21D;17637;51.984;21.208;2022-08-07T20:08:39;15.73;12.30
30949;HTU21D;17637;51.984;21.208;2022-08-07T20:13:55;15.57;11.78
30949;HTU21D;17637;51.984;21.208;2022-08-07T20:19:01;15.51;11.59
30949;HTU21D;17637;51.984;21.208;2022-08-07T20:24:12;15.45;11.48
30949;HTU21D;17637;51.984;21.208;2022-08-07T20:29:22;15.33;11.60
30949;HTU21D;17637;51.984;21.208;2022-08-07T20:34:49;15.26;11.27
30949;HTU21D;17637;51.984;21.208;2022-08-07T20:39:53;15.21;10.97
30949;HTU21D;17637;51.984;21.208;2022-08-07T20:45:09;15.22;10.94
30949;HTU21D;17637;51.984;21.208;2022-08-07T20:50:34;15.10;10.97
30949;HTU21D;17637;51.984;21.208;2022-08-07T20:55:39;15.02;11.00
30949;HTU21D;17637;51.984;21.208;2022-08-07T21:00:50;14.95;10.85
30949;HTU21D;17637;51.984;21.208;2022-08-07T21:05:56;14.88;10.57
30949;HTU21D;17637;51.984;21.208;2022-08-07T21:11:25;14.77;10.13
30949;HTU21D;17637;51.984;21.208;2022-08-07T21:16:54;14.73;9.81
30949;HTU21D;17637;51.984;21.208;2022-08-07T21:22:21;14.60;9.12
30949;HTU21D;17637;51.984;21.208;2022-08-07T21:27:39;14.55;9.30
30949;HTU21D;17637;51.984;21.208;2022-08-07T21:32:57;14.44;8.89
30949;HTU21D;17637;51.984;21.208;2022-08-07T21:38:14;14.47;8.49
30949;HTU21D;17637;51.984;21.208;2022-08-07T21:43:37;14.42;8.13
30949;HTU21D;17637;51.984;21.208;2022-08-07T21:49:05;14.43;8.36
30949;HTU21D;17637;51.984;21.208;2022-08-07T21:54:24;14.28;8.24
30949;HTU21D;17637;51.984;21.208;2022-08-07T21:59:33;14.26;8.00
30949;HTU21D;17637;51.984;21.208;2022-08-07T22:05:05;14.18;7.97
30949;HTU21D;17637;51.984;21.208;2022-08-07T22:10:26;14.17;7.70
30949;HTU21D;17637;51.984;21.208;2022-08-07T22:15:40;14.06;7.66
30949;HTU21D;17637;51.984;21.208;2022-08-07T22:21:13;14.00;7.59
30949;HTU21D;17637;51.984;21.208;2022-08-07T22:26:28;14.01;7.49
30949;HTU21D;17637;51.984;21.208;2022-08-07T22:31:40;14.01;7.37
30949;HTU21D;17637;51.984;21.208;2022-08-07T22:37:12;13.84;7.23
30949;HTU21D;17637;51.984;21.208;2022-08-07T22:42:18;13.88;6.67
30949;HTU21D;17637;51.984;21.208;2022-08-07T22:48:00;13.78;6.71
30949;HTU21D;17637;51.984;21.208;2022-08-07T22:53:30;13.68;6.64
30949;HTU21D;17637;51.984;21.208;2022-08-07T22:59:22;13.65;6.69
30949;HTU21D;17637;51.984;21.208;2022-08-07T23:04:59;13.65;6.53
30949;HTU21D;17637;51.984;21.208;2022-08-07T23:10:38;13.65;6.60
30949;HTU21D;17637;51.984;21.208;2022-08-07T23:15:56;13.55;6.32
30949;HTU21D;17637;51.984;21.208;2022-08-07T23:21:22;13.48;6.55
30949;HTU21D;17637;51.984;21.208;2022-08-07T23:26:48;13.48;6.70
30949;HTU21D;17637;51.984;21.208;2022-08-07T23:32:06;13.40;6.39
30949;HTU21D;17637;51.984;21.208;2022-08-07T23:37:49;13.33;6.42
30949;HTU21D;17637;51.984;21.208;2022-08-07T23:43:16;13.25;6.59
30949;HTU21D;17637;51.984;21.208;2022-08-07T23:48:34;13.16;6.64
30949;HTU21D;17637;51.984;21.208;2022-08-07T23:53:46;13.18;6.53
30949;HTU21D;17637;51.984;21.208;2022-08-07T23:59:06;13.11;6.80
